Time;durP1;ratioP1;P1;durP2;ratioP2;P2;SDS_P1;SDS_P2;PMS_P1;PMS_P2;Temp;Humidity;BMP_temperature;BMP_pressure;BME280_temperature;BME280_humidity;BME280_pressure;Samples;Min_cycle;Max_cycle;Signal;HPM_P1;HPM_P2
2022/05/01 00:00:17;;;;;;;22.02;13.40;;;7.80;99.90;;;;;;7398899;19;20015;-85
2022/05/01 00:02:49;;;;;;;24.27;14.10;;;7.40;99.90;;;;;;7394062;19;20018;-86
2022/05/01 00:05:18;;;;;;;27.75;14.70;;;7.90;99.90;;;;;;7397272;19;20031;-85
2022/05/01 00:07:47;;;;;;;26.48;14.30;;;;;;;;;;7394636;19;20009;-86
2022/05/01 00:10:16;;;;;;;22.45;13.32;;;7.90;99.90;;;;;;7396218;19;20094;-85
2022/05/01 00:12:45;;;;;;;22.38;14.05;;;7.90;99.90;;;;;;7395384;19;20029;-85
2022/05/01 00:15:14;;;;;;;22.90;12.88;;;7.80;99.90;;;;;;7400004;19;20046;-85
2022/05/01 00:17:44;;;;;;;23.08;13.52;;;7.50;99.90;;;;;;7396728;19;20339;-85
2022/05/01 00:20:16;;;;;;;25.23;13.95;;;;;;;;;;7395059;19;20059;-84
2022/05/01 00:22:45;;;;;;;24.30;13.05;;;;;;;;;;7396977;19;20015;-85
2022/05/01 00:25:14;;;;;;;21.42;12.80;;;7.50;99.90;;;;;;7397726;19;20027;-86
2022/05/01 00:27:43;;;;;;;20.50;12.88;;;;;;;;;;7397901;19;20491;-86
2022/05/01 00:30:13;;;;;;;22.23;12.75;;;7.50;99.90;;;;;;7394089;19;20014;-85
2022/05/01 00:38:08;;;;;;;21.25;12.73;;;;;;;;;;7397324;19;20023;-85
2022/05/01 00:40:37;;;;;;;22.63;12.88;;;7.50;99.90;;;;;;7396017;19;20015;-85
2022/05/01 00:43:07;;;;;;;21.83;12.88;;;7.80;99.90;;;;;;7396263;19;20492;-84
2022/05/01 00:45:37;;;;;;;21.13;13.50;;;7.80;99.90;;;;;;7398097;19;20018;-85
2022/05/01 00:48:06;;;;;;;21.33;13.70;;;7.50;99.90;;;;;;7395661;19;20042;-85
2022/05/01 00:50:38;;;;;;;22.38;12.45;;;7.60;99.90;;;;;;7397029;19;20530;-86
2022/05/01 00:53:08;;;;;;;22.92;14.15;;;7.60;99.90;;;;;;7396885;19;20458;-86
2022/05/01 00:55:38;;;;;;;24.27;14.13;;;;;;;;;;7396041;19;20014;-86
2022/05/01 00:58:09;;;;;;;24.13;13.63;;;7.50;99.90;;;;;;7396606;19;20495;-86
2022/05/01 01:00:38;;;;;;;24.08;12.93;;;7.50;99.90;;;;;;7394813;19;20022;-86
2022/05/01 01:03:08;;;;;;;23.33;13.30;;;;;;;;;;7397123;19;20014;-85
2022/05/01 01:05:39;;;;;;;19.25;11.23;;;7.40;99.90;;;;;;7402018;19;20036;-86
2022/05/01 01:08:09;;;;;;;19.15;12.15;;;7.50;99.90;;;;;;7399716;19;20086;-85
2022/05/01 01:10:38;;;;;;;23.20;13.20;;;7.50;99.90;;;;;;7403071;19;20011;-86
2022/05/01 01:13:07;;;;;;;24.35;12.98;;;7.40;99.90;;;;;;7404672;19;20010;-86
2022/05/01 01:15:37;;;;;;;21.15;12.45;;;7.60;99.90;;;;;;7403484;19;20418;-88
2022/05/01 01:18:06;;;;;;;21.10;13.68;;;7.70;99.90;;;;;;7402341;19;20483;-85
2022/05/01 01:21:00;;;;;;;22.33;13.23;;;7.60;99.90;;;;;;7405092;19;20015;-86
2022/05/01 01:23:31;;;;;;;21.85;13.38;;;7.40;99.90;;;;;;7400537;19;20011;-86
2022/05/01 01:26:00;;;;;;;21.48;12.05;;;7.10;99.90;;;;;;7401896;19;20014;-86
2022/05/01 01:28:30;;;;;;;24.50;13.73;;;7.40;99.90;;;;;;7402474;19;20078;-86
2022/05/01 01:33:41;;;;;;;24.10;13.05;;;;;;;;;;7403496;19;20010;-86
2022/05/01 01:36:13;;;;;;;20.85;12.07;;;7.20;99.90;;;;;;7405364;19;20015;-86
2022/05/01 01:38:42;;;;;;;21.30;12.90;;;7.20;99.90;;;;;;7405755;19;20018;-86
2022/05/01 01:41:12;;;;;;;22.40;12.90;;;7.10;99.90;;;;;;7403340;19;20048;-86
2022/05/01 01:43:45;;;;;;;21.77;12.23;;;7.00;99.90;;;;;;7402118;19;20031;-86
2022/05/01 01:46:13;;;;;;;21.17;12.93;;;7.10;99.90;;;;;;7401308;19;20026;-86
2022/05/01 01:48:43;;;;;;;21.50;12.35;;;;;;;;;;7401524;19;20034;-85
2022/05/01 01:51:14;;;;;;;20.83;12.80;;;6.90;99.90;;;;;;7401950;19;20032;-84
2022/05/01 01:53:44;;;;;;;23.88;13.23;;;6.90;99.90;;;;;;7400519;19;20035;-84
2022/05/01 01:56:13;;;;;;;22.80;13.95;;;6.80;99.90;;;;;;7401043;19;20508;-84
2022/05/01 01:58:43;;;;;;;19.83;12.35;;;6.80;99.90;;;;;;7399262;19;20515;-84
2022/05/01 02:01:13;;;;;;;23.42;12.20;;;;;;;;;;7402554;19;20019;-84
2022/05/01 02:03:47;;;;;;;21.42;13.07;;;6.90;99.90;;;;;;7400577;19;20024;-84
2022/05/01 02:06:19;;;;;;;23.20;14.07;;;6.50;99.90;;;;;;7401875;19;20021;-84
2022/05/01 02:08:48;;;;;;;25.05;13.32;;;6.60;99.90;;;;;;7402204;19;20010;-84
2022/05/01 02:11:18;;;;;;;21.33;12.90;;;;;;;;;;7402370;19;20035;-84
2022/05/01 02:13:46;;;;;;;21.00;12.40;;;6.30;99.90;;;;;;7401405;19;20483;-84
2022/05/01 02:16:17;;;;;;;21.15;12.95;;;6.40;99.90;;;;;;7405099;19;20483;-84
2022/05/01 02:18:46;;;;;;;21.05;12.55;;;;;;;;;;7406683;19;20506;-85
2022/05/01 02:23:59;;;;;;;23.73;13.32;;;6.40;99.90;;;;;;7400614;19;20021;-84
2022/05/01 02:26:29;;;;;;;20.92;12.07;;;6.10;99.90;;;;;;7400770;19;20014;-85
2022/05/01 02:28:58;;;;;;;23.50;13.15;;;;;;;;;;7401219;19;20363;-85
2022/05/01 02:31:27;;;;;;;25.05;13.25;;;6.10;99.90;;;;;;7402192;19;20011;-84
2022/05/01 02:33:56;;;;;;;28.42;14.48;;;6.10;99.90;;;;;;7401142;19;20015;-84
2022/05/01 02:36:28;;;;;;;29.05;14.55;;;6.10;99.90;;;;;;7402212;19;20035;-85
2022/05/01 02:38:57;;;;;;;22.80;13.80;;;;;;;;;;7402849;19;20015;-85
2022/05/01 02:41:26;;;;;;;25.67;14.48;;;5.80;99.90;;;;;;7397053;19;20377;-85
2022/05/01 02:43:56;;;;;;;22.67;13.02;;;6.30;99.90;;;;;;7397707;19;20487;-85
2022/05/01 02:46:25;;;;;;;26.92;14.60;;;;;;;;;;7399634;19;20015;-86
2022/05/01 02:48:54;;;;;;;23.92;14.20;;;;;;;;;;7398485;19;20018;-85
2022/05/01 02:51:26;;;;;;;22.90;13.35;;;5.60;99.90;;;;;;7402121;19;20018;-85
2022/05/01 02:53:55;;;;;;;25.23;13.77;;;5.80;99.90;;;;;;7398726;19;20018;-85
2022/05/01 02:56:25;;;;;;;25.88;14.10;;;;;;;;;;7399797;19;20021;-84
2022/05/01 02:58:54;;;;;;;25.00;13.63;;;;;;;;;;7400676;19;20347;-85
2022/05/01 03:01:23;;;;;;;21.98;12.73;;;;;;;;;;7400014;19;20020;-85
2022/05/01 03:03:52;;;;;;;20.45;13.40;;;;;;;;;;7400173;19;20082;-85
2022/05/01 03:06:21;;;;;;;24.92;14.20;;;;;;;;;;7401070;19;20491;-84
2022/05/01 03:08:52;;;;;;;22.98;13.55;;;5.50;99.90;;;;;;7399547;19;20085;-85
2022/05/01 03:11:21;;;;;;;25.23;13.93;;;5.40;99.90;;;;;;7397814;19;20479;-85
2022/05/01 03:13:53;;;;;;;20.27;12.95;;;;;;;;;;7398705;19;20450;-85
2022/05/01 03:16:23;;;;;;;23.52;13.60;;;;;;;;;;7400187;19;20088;-84
2022/05/01 03:24:19;;;;;;;26.90;13.55;;;;;;;;;;7399766;19;20020;-85
2022/05/01 03:26:48;;;;;;;23.90;14.55;;;;;;;;;;7399707;19;20018;-85
2022/05/01 03:29:17;;;;;;;27.13;14.02;;;;;;;;;;7401623;19;20011;-85
2022/05/01 03:31:48;;;;;;;25.70;14.00;;;;;;;;;;7400167;19;20468;-85
2022/05/01 03:34:17;;;;;;;24.33;14.10;;;5.00;99.90;;;;;;7399215;19;20010;-85
2022/05/01 03:36:47;;;;;;;23.65;13.00;;;;;;;;;;7400221;19;20034;-84
2022/05/01 03:39:19;;;;;;;22.08;13.45;;;;;;;;;;7398496;19;20483;-85
2022/05/01 03:41:48;;;;;;;26.58;13.80;;;;;;;;;;7396703;19;20010;-85
2022/05/01 03:44:17;;;;;;;24.83;14.50;;;5.30;99.90;;;;;;7398990;19;20021;-86
2022/05/01 03:46:46;;;;;;;25.20;14.45;;;;;;;;;;7401954;19;20011;-85
2022/05/01 03:49:15;;;;;;;22.40;13.73;;;;;;;;;;7397152;19;20078;-85
2022/05/01 03:51:46;;;;;;;23.95;13.68;;;;;;;;;;7401565;19;20074;-85
2022/05/01 03:54:15;;;;;;;25.80;13.40;;;;;;;;;;7396520;19;20085;-85
2022/05/01 03:56:47;;;;;;;22.98;12.93;;;5.10;99.90;;;;;;7400949;19;20047;-85
2022/05/01 03:59:16;;;;;;;22.73;13.55;;;;;;;;;;7397733;19;20014;-84
2022/05/01 04:01:45;;;;;;;23.85;14.10;;;;;;;;;;7400233;19;20002;-86
2022/05/01 04:04:14;;;;;;;24.83;13.63;;;;;;;;;;7399041;19;20018;-86
2022/05/01 04:06:44;;;;;;;29.23;15.32;;;;;;;;;;7398308;19;20014;-85
2022/05/01 04:09:13;;;;;;;27.30;14.68;;;;;;;;;;7396212;19;20014;-85
2022/05/01 04:11:42;;;;;;;28.02;15.63;;;;;;;;;;7397841;19;20018;-85
2022/05/01 04:14:14;;;;;;;26.48;14.88;;;;;;;;;;7396633;19;20031;-85
2022/05/01 04:16:44;;;;;;;28.85;14.70;;;5.30;99.90;;;;;;7400234;19;20508;-85
2022/05/01 04:19:14;;;;;;;25.95;14.90;;;;;;;;;;7396372;19;20083;-85
2022/05/01 04:21:43;;;;;;;27.55;15.60;;;;;;;;;;7399488;19;20011;-84
2022/05/01 04:24:12;;;;;;;28.95;15.50;;;;;;;;;;7397681;19;20082;-85
2022/05/01 04:26:42;;;;;;;30.80;17.42;;;;;;;;;;7398214;19;20024;-85
2022/05/01 04:31:55;;;;;;;27.38;15.80;;;;;;;;;;7400641;19;20051;-86
2022/05/01 04:34:25;;;;;;;27.77;16.15;;;;;;;;;;7399802;19;20010;-85
2022/05/01 04:36:54;;;;;;;29.58;15.45;;;;;;;;;;7392231;19;20006;-85
2022/05/01 04:39:23;;;;;;;26.70;16.08;;;;;;;;;;7399926;19;20026;-85
2022/05/01 04:41:53;;;;;;;24.85;14.45;;;5.60;99.90;;;;;;7406702;19;20010;-85
2022/05/01 04:44:22;;;;;;;22.42;12.82;;;;;;;;;;7406688;19;20385;-84
2022/05/01 04:46:52;;;;;;;24.13;13.52;;;;;;;;;;7404181;19;20018;-85
2022/05/01 04:49:23;;;;;;;19.70;12.15;;;;;;;;;;7403707;19;20039;-85
2022/05/01 04:51:53;;;;;;;17.77;11.68;;;;;;;;;;7404938;19;20376;-85
2022/05/01 04:54:22;;;;;;;24.67;13.65;;;;;;;;;;7405970;19;20014;-85
2022/05/01 04:59:32;;;;;;;22.88;13.07;;;;;;;;;;7407256;19;20018;-85
2022/05/01 05:02:03;;;;;;;20.63;11.73;;;;;;;;;;7403534;19;20087;-85
2022/05/01 05:04:36;;;;;;;21.63;11.98;;;;;;;;;;7405793;19;20007;-85
2022/05/01 05:07:05;;;;;;;22.95;13.23;;;;;;;;;;7405539;19;20055;-86
2022/05/01 05:12:15;;;;;;;18.45;11.63;;;;;;;;;;7405294;19;20030;-86
2022/05/01 05:14:46;;;;;;;19.27;12.15;;;5.70;99.90;;;;;;7407669;19;20019;-85
2022/05/01 05:17:18;;;;;;;20.02;11.70;;;;;;;;;;7403760;19;20019;-85
2022/05/01 05:19:51;;;;;;;18.63;11.98;;;5.60;99.90;;;;;;7405429;19;20038;-85
2022/05/01 05:22:20;;;;;;;19.52;12.27;;;;;;;;;;7402694;19;20074;-85
2022/05/01 05:24:49;;;;;;;21.63;13.15;;;;;;;;;;7407678;19;20018;-85
2022/05/01 05:27:21;;;;;;;19.80;12.23;;;;;;;;;;7405810;19;20006;-85
2022/05/01 05:29:50;;;;;;;21.48;12.15;;;6.00;99.90;;;;;;7404902;19;20010;-86
2022/05/01 05:32:19;;;;;;;17.83;11.88;;;;;;;;;;7405029;19;20006;-86
2022/05/01 05:34:51;;;;;;;18.73;12.10;;;;;;;;;;7401958;19;20471;-85
2022/05/01 05:37:21;;;;;;;13.68;9.45;;;5.90;99.90;;;;;;7403816;19;20014;-85
2022/05/01 05:39:50;;;;;;;16.83;11.65;;;6.00;99.90;;;;;;7401440;19;20003;-85
2022/05/01 05:42:20;;;;;;;18.40;11.85;;;6.00;99.90;;;;;;7401930;19;20082;-85
2022/05/01 05:44:49;;;;;;;17.60;12.13;;;6.20;99.90;;;;;;7402533;19;20010;-86
2022/05/01 05:47:18;;;;;;;21.13;13.45;;;6.40;99.90;;;;;;7403163;19;20014;-85
2022/05/01 05:49:47;;;;;;;25.15;14.75;;;6.50;99.90;;;;;;7404639;19;20011;-86
2022/05/01 05:52:19;;;;;;;23.10;14.63;;;6.70;99.90;;;;;;7399741;19;20080;-85
2022/05/01 05:54:47;;;;;;;26.20;16.17;;;6.90;99.90;;;;;;7401595;19;20035;-86
2022/05/01 05:57:16;;;;;;;29.85;16.42;;;7.10;99.90;;;;;;7399239;19;20025;-86
2022/05/01 05:59:45;;;;;;;26.60;15.15;;;;;;;;;;7398669;19;20017;-86
2022/05/01 06:02:14;;;;;;;22.50;15.10;;;7.60;99.90;;;;;;7396850;19;20011;-86
2022/05/01 06:04:43;;;;;;;25.92;14.85;;;7.20;99.90;;;;;;7398285;19;20014;-86
2022/05/01 06:07:12;;;;;;;27.08;15.57;;;7.40;99.90;;;;;;7399393;19;20039;-86
2022/05/01 06:09:44;;;;;;;23.77;15.07;;;7.50;99.90;;;;;;7397142;19;20088;-86
2022/05/01 06:12:13;;;;;;;25.45;14.82;;;;;;;;;;7400470;19;20081;-86
2022/05/01 06:14:44;;;;;;;26.65;16.23;;;;;;;;;;7400323;19;20086;-86
2022/05/01 06:17:13;;;;;;;26.13;15.95;;;7.70;99.90;;;;;;7394956;19;20023;-86
2022/05/01 06:19:43;;;;;;;23.95;15.60;;;7.90;99.90;;;;;;7400487;19;20172;-86
2022/05/01 06:22:12;;;;;;;28.40;16.90;;;7.90;99.90;;;;;;7398717;19;20074;-86
2022/05/01 06:24:41;;;;;;;27.23;16.25;;;8.10;99.90;;;;;;7397915;19;20490;-86
2022/05/01 06:27:12;;;;;;;30.20;16.73;;;8.10;99.90;;;;;;7400250;19;20019;-86
2022/05/01 06:29:41;;;;;;;24.65;15.93;;;8.20;99.90;;;;;;7397415;19;20022;-86
2022/05/01 06:32:11;;;;;;;26.35;15.88;;;8.20;99.90;;;;;;7395816;19;20089;-87
2022/05/01 06:34:40;;;;;;;24.63;16.27;;;8.10;99.90;;;;;;7399316;19;20015;-86
2022/05/01 06:37:09;;;;;;;27.08;15.18;;;;;;;;;;7399059;19;20066;-86
2022/05/01 06:39:38;;;;;;;25.15;15.32;;;;;;;;;;7399996;19;20031;-86
2022/05/01 06:42:09;;;;;;;22.85;16.13;;;8.30;99.90;;;;;;7397287;19;20011;-86
2022/05/01 06:44:41;;;;;;;20.85;13.77;;;8.30;99.90;;;;;;7398636;19;20320;-86
2022/05/01 06:47:13;;;;;;;21.73;13.30;;;8.30;99.90;;;;;;7398213;19;20010;-86
2022/05/01 06:49:41;;;;;;;16.90;11.40;;;8.20;99.90;;;;;;7397366;19;20032;-87
2022/05/01 06:52:10;;;;;;;16.83;11.55;;;8.50;99.90;;;;;;7397132;19;20021;-86
2022/05/01 06:54:39;;;;;;;21.70;13.27;;;8.70;99.90;;;;;;7400659;19;20487;-86
2022/05/01 06:57:09;;;;;;;22.70;12.68;;;;;;;;;;7398261;19;20011;-86
2022/05/01 06:59:38;;;;;;;17.80;12.40;;;;;;;;;;7396501;19;20014;-87
2022/05/01 07:02:10;;;;;;;17.50;12.13;;;;;;;;;;7394225;19;20404;-86
2022/05/01 07:04:39;;;;;;;19.63;12.27;;;9.00;99.90;;;;;;7397280;19;20085;-86
2022/05/01 07:07:08;;;;;;;17.60;11.32;;;9.00;99.90;;;;;;7398527;19;20015;-86
2022/05/01 07:09:37;;;;;;;20.38;11.85;;;;;;;;;;7398369;19;20027;-86
2022/05/01 07:12:10;;;;;;;16.27;11.02;;;9.10;99.90;;;;;;7396501;19;20017;-86
2022/05/01 07:14:39;;;;;;;16.92;11.23;;;9.30;99.90;;;;;;7397442;19;20014;-86
2022/05/01 07:17:11;;;;;;;20.05;12.35;;;9.70;99.90;;;;;;7395056;19;20405;-87
2022/05/01 07:19:40;;;;;;;19.77;11.85;;;9.70;99.90;;;;;;7398455;19;20054;-86
2022/05/01 07:22:09;;;;;;;18.98;12.23;;;;;;;;;;7401374;19;20014;-86
2022/05/01 07:24:38;;;;;;;17.08;11.32;;;9.40;99.90;;;;;;7399541;19;20010;-86
2022/05/01 07:27:08;;;;;;;18.63;11.70;;;9.50;99.90;;;;;;7395702;19;20520;-86
2022/05/01 07:29:37;;;;;;;17.80;11.93;;;;;;;;;;7396929;19;20411;-86
2022/05/01 07:32:07;;;;;;;20.10;12.13;;;9.10;99.90;;;;;;7398114;19;20023;-87
2022/05/01 07:34:38;;;;;;;19.48;11.57;;;9.50;99.90;;;;;;7395273;19;20521;-86
2022/05/01 07:37:07;;;;;;;17.40;11.15;;;9.50;99.90;;;;;;7397408;19;20015;-86
2022/05/01 07:39:36;;;;;;;17.38;11.02;;;9.70;99.90;;;;;;7395445;19;20485;-86
2022/05/01 07:42:06;;;;;;;16.58;12.10;;;10.00;99.90;;;;;;7395737;19;20071;-86
2022/05/01 07:44:36;;;;;;;17.98;10.52;;;;;;;;;;7394248;19;20507;-86
2022/05/01 07:47:05;;;;;;;18.38;11.07;;;10.00;99.90;;;;;;7397549;19;20028;-86
2022/05/01 07:49:33;;;;;;;17.60;11.98;;;10.10;99.90;;;;;;7397658;19;20043;-86
2022/05/01 07:52:06;;;;;;;18.05;11.68;;;10.00;99.90;;;;;;7396333;19;20011;-86
2022/05/01 07:54:35;;;;;;;17.20;11.77;;;9.90;99.90;;;;;;7396361;19;20487;-86
2022/05/01 07:57:04;;;;;;;22.17;11.93;;;9.60;99.90;;;;;;7395132;19;20348;-86
2022/05/01 07:59:33;;;;;;;15.95;10.63;;;9.90;99.90;;;;;;7398224;19;20019;-86
2022/05/01 08:02:02;;;;;;;12.90;9.13;;;;;;;;;;7396571;19;20357;-86
2022/05/01 08:04:29;;;;;;;13.48;8.70;;;9.90;99.90;;;;;;7393378;19;20082;-86
2022/05/01 08:06:59;;;;;;;12.55;8.90;;;9.60;99.90;;;;;;7398644;19;20031;-86
2022/05/01 08:09:32;;;;;;;15.95;9.60;;;9.90;99.90;;;;;;7396274;19;20019;-86
2022/05/01 08:12:02;;;;;;;15.10;9.27;;;10.30;99.90;;;;;;7396214;19;20091;-86
2022/05/01 08:14:31;;;;;;;15.05;9.43;;;;;;;;;;7400808;19;20608;-85
2022/05/01 08:17:00;;;;;;;15.60;10.00;;;10.00;99.90;;;;;;7399492;19;20022;-86
2022/05/01 08:22:11;;;;;;;11.70;8.25;;;10.60;98.00;;;;;;7404446;19;20011;-86
2022/05/01 08:24:43;;;;;;;15.65;9.68;;;11.00;99.50;;;;;;7398770;19;20014;-86
2022/05/01 08:27:11;;;;;;;11.35;7.85;;;11.30;97.80;;;;;;7400167;19;20010;-86
2022/05/01 08:29:40;;;;;;;12.00;7.97;;;11.50;97.60;;;;;;7401473;19;20010;-85
2022/05/01 08:32:10;;;;;;;13.63;8.48;;;11.60;96.90;;;;;;7400084;19;20034;-85
2022/05/01 08:34:39;;;;;;;10.85;8.40;;;;;;;;;;7403372;19;20045;-86
2022/05/01 08:37:08;;;;;;;12.98;8.20;;;11.80;96.00;;;;;;7402105;19;20014;-87
2022/05/01 08:39:37;;;;;;;11.45;7.63;;;12.10;96.10;;;;;;7402785;19;20010;-86
2022/05/01 08:42:09;;;;;;;11.48;7.53;;;12.40;94.70;;;;;;7399156;19;20027;-86
2022/05/01 08:47:20;;;;;;;;;;;12.00;94.80;;;;;;7382769;19;20015;-93
2022/05/01 08:49:54;;;;;;;11.00;7.95;;;11.70;95.80;;;;;;7404168;19;19918;-91
2022/05/01 08:52:25;;;;;;;12.10;8.00;;;12.20;96.50;;;;;;7401312;19;20447;-88
2022/05/01 08:54:55;;;;;;;11.73;7.85;;;12.00;96.90;;;;;;7404445;19;20019;-89
2022/05/01 08:57:28;;;;;;;11.38;7.85;;;12.30;95.70;;;;;;7402299;19;20015;-91
2022/05/01 08:59:57;;;;;;;13.32;8.27;;;12.80;96.10;;;;;;7405595;19;20015;-89
2022/05/01 09:02:27;;;;;;;13.20;8.55;;;13.00;95.90;;;;;;7411796;19;20015;-88
2022/05/01 09:04:59;;;;;;;10.15;7.53;;;13.00;95.30;;;;;;7415738;19;20011;-88
2022/05/01 09:07:29;;;;;;;10.15;7.32;;;13.20;94.80;;;;;;7421851;19;20018;-93
2022/05/01 09:09:59;;;;;;;11.63;7.07;;;13.10;93.50;;;;;;7418163;19;20013;-93
2022/05/01 09:52:08;;;;;;;8.45;5.40;;;14.10;91.30;;;;;;7423089;19;20038;-63
2022/05/01 09:54:38;;;;;;;7.30;5.88;;;13.90;88.20;;;;;;7398291;19;20154;-62
2022/05/01 09:57:08;;;;;;;9.93;5.90;;;14.20;91.30;;;;;;7396918;19;20014;-62
2022/05/01 09:59:48;;;;;;;6.40;5.43;;;13.70;89.00;;;;;;7396448;19;20028;-62
2022/05/01 10:02:18;;;;;;;7.43;4.97;;;14.40;91.00;;;;;;7397007;19;20007;-62
2022/05/01 10:04:48;;;;;;;6.93;4.70;;;15.20;88.90;;;;;;7397185;19;20015;-62
2022/05/01 10:07:21;;;;;;;8.73;5.53;;;15.10;88.20;;;;;;7392697;19;20023;-62
2022/05/01 10:09:52;;;;;;;6.68;4.85;;;15.40;84.00;;;;;;7400524;19;20542;-62
2022/05/01 10:12:22;;;;;;;8.30;4.88;;;14.90;83.00;;;;;;7397107;19;20017;-60
2022/05/01 10:14:52;;;;;;;10.65;5.15;;;15.50;83.80;;;;;;7396636;19;20018;-62
2022/05/01 10:17:20;;;;;;;8.82;5.13;;;15.20;80.00;;;;;;7398146;19;20124;-61
2022/05/01 10:19:51;;;;;;;7.10;4.80;;;15.40;80.10;;;;;;7395332;19;20003;-61
2022/05/01 10:22:25;;;;;;;7.05;4.63;;;15.30;79.90;;;;;;7397641;19;20031;-61
2022/05/01 10:24:54;;;;;;;6.93;4.63;;;15.40;81.30;;;;;;7398198;19;20014;-61
2022/05/01 10:27:33;;;;;;;6.30;4.60;;;16.20;81.60;;;;;;7400365;19;20374;-61
2022/05/01 10:33:17;;;;;;;6.97;5.07;;;16.90;77.30;;;;;;7398827;19;20078;-63
2022/05/01 10:36:24;;;;;;;6.13;4.38;;;16.90;73.10;;;;;;7394916;19;20022;-62
2022/05/01 10:39:09;;;;;;;7.80;5.10;;;17.20;72.40;;;;;;7391958;19;20031;-62
2022/05/01 10:41:43;;;;;;;5.47;4.45;;;17.50;71.80;;;;;;7400734;19;20014;-62
2022/05/01 10:44:30;;;;;;;7.70;5.07;;;17.00;70.00;;;;;;7394293;19;20476;-62
2022/05/01 10:47:09;;;;;;;6.20;4.80;;;16.60;71.80;;;;;;7390156;19;20042;-63
2022/05/01 10:49:42;;;;;;;7.13;4.95;;;16.30;71.30;;;;;;7396655;19;20113;-62
2022/05/01 10:52:19;;;;;;;8.10;4.68;;;15.90;73.30;;;;;;7390409;19;20536;-62
2022/05/01 10:55:01;;;;;;;6.97;5.25;;;16.00;74.20;;;;;;7397048;19;20018;-61
2022/05/01 10:57:30;;;;;;;5.75;4.53;;;16.50;73.30;;;;;;7396827;19;20014;-62
2022/05/01 11:00:10;;;;;;;5.85;4.60;;;16.90;73.10;;;;;;7397637;19;20043;-62
2022/05/01 11:02:41;;;;;;;9.50;5.28;;;17.00;71.70;;;;;;7393303;19;20014;-63
2022/05/01 11:05:12;;;;;;;6.47;4.43;;;16.20;72.20;;;;;;7396221;19;20028;-62
2022/05/01 11:07:42;;;;;;;5.85;4.60;;;17.00;72.20;;;;;;7395080;19;20034;-62
2022/05/01 11:10:15;;;;;;;7.57;4.68;;;16.80;71.80;;;;;;7394336;19;20011;-62
2022/05/01 11:12:45;;;;;;;5.90;4.70;;;16.90;72.30;;;;;;7392297;19;20035;-62
2022/05/01 11:15:14;;;;;;;6.05;4.78;;;16.80;71.00;;;;;;7391548;19;20011;-63
2022/05/01 11:17:58;;;;;;;6.78;4.68;;;16.00;72.60;;;;;;7397233;19;20021;-63
2022/05/01 11:20:33;;;;;;;6.18;4.47;;;15.70;73.30;;;;;;7396682;19;20375;-62
2022/05/01 11:23:29;;;;;;;7.57;5.05;;;16.10;72.20;;;;;;7391232;19;20500;-62
2022/05/01 11:26:10;;;;;;;;;;;16.30;71.50;;;;;;7398524;19;20058;-62
2022/05/01 11:28:53;;;;;;;7.63;4.75;;;16.30;70.80;;;;;;7394151;19;19954;-63
2022/05/01 11:31:58;;;;;;;8.30;5.13;;;16.30;73.10;;;;;;7397173;19;20007;-62
2022/05/01 11:34:54;;;;;;;6.63;4.88;;;17.00;71.30;;;;;;7391756;19;20025;-62
2022/05/01 11:37:28;;;;;;;6.43;4.85;;;17.10;68.80;;;;;;7394108;19;20039;-62
2022/05/01 11:40:23;;;;;;;5.90;4.25;;;17.40;71.60;;;;;;7398389;19;20014;-62
2022/05/01 11:42:55;;;;;;;6.53;4.47;;;17.40;67.40;;;;;;7393533;19;20010;-61
2022/05/01 11:45:33;;;;;;;5.72;4.82;;;16.60;71.00;;;;;;7394155;19;20400;-62
2022/05/01 11:48:03;;;;;;;7.93;4.88;;;16.30;72.00;;;;;;7393945;19;20015;-62
2022/05/01 11:50:33;;;;;;;6.90;4.45;;;15.90;71.90;;;;;;7383066;19;20018;-61
2022/05/01 11:53:06;;;;;;;5.38;4.55;;;15.60;72.50;;;;;;7394965;19;20391;-61
2022/05/01 12:03:56;;;;;;;7.53;4.60;;;15.40;74.90;;;;;;7395792;19;20007;-62
2022/05/01 12:06:29;;;;;;;6.70;4.63;;;15.40;75.50;;;;;;7394442;19;20014;-62
2022/05/01 12:08:59;;;;;;;7.65;4.82;;;15.60;75.60;;;;;;7392868;19;20030;-62
2022/05/01 12:11:32;;;;;;;6.43;4.72;;;15.70;75.90;;;;;;7397465;19;20077;-61
2022/05/01 12:14:16;;;;;;;8.77;4.82;;;15.40;74.30;;;;;;7394854;19;20034;-61
2022/05/01 12:16:46;;;;;;;6.40;4.30;;;15.80;75.30;;;;;;7395052;19;20010;-61
2022/05/01 12:19:16;;;;;;;6.85;4.43;;;15.90;75.60;;;;;;7392082;19;20007;-62
2022/05/01 12:21:45;;;;;;;6.68;5.10;;;15.80;74.10;;;;;;7394214;19;20361;-62
2022/05/01 12:24:15;;;;;;;7.50;4.15;;;15.60;73.40;;;;;;7392814;19;20030;-62
2022/05/01 12:26:54;;;;;;;9.57;4.40;;;15.80;74.50;;;;;;7390853;19;20046;-61
2022/05/01 12:29:27;;;;;;;8.60;4.78;;;15.90;75.20;;;;;;7392269;19;20070;-62
2022/05/01 12:32:03;;;;;;;6.53;4.55;;;15.70;76.50;;;;;;7393445;19;20014;-61
2022/05/01 12:34:33;;;;;;;7.90;4.55;;;16.00;77.20;;;;;;7392187;19;20017;-63
2022/05/01 12:37:04;;;;;;;8.00;4.95;;;15.60;74.50;;;;;;7396106;19;20460;-63
2022/05/01 12:39:35;;;;;;;7.20;4.25;;;15.60;73.50;;;;;;7393196;19;20018;-62
2022/05/01 12:45:16;;;;;;;14.27;5.90;;;15.70;73.60;;;;;;7391410;19;20099;-62
2022/05/01 12:47:48;;;;;;;7.20;4.97;;;15.90;72.00;;;;;;7394010;19;20092;-62
2022/05/01 12:50:28;;;;;;;8.35;5.25;;;16.00;73.90;;;;;;7393924;19;20011;-62
2022/05/01 12:53:01;;;;;;;8.48;5.18;;;16.20;72.70;;;;;;7389952;19;20021;-62
2022/05/01 12:55:34;;;;;;;7.32;4.97;;;16.20;72.10;;;;;;7391811;19;20010;-61
2022/05/01 12:58:08;;;;;;;7.65;4.93;;;16.10;72.90;;;;;;7390729;19;20021;-62
2022/05/01 13:00:42;;;;;;;6.97;4.90;;;16.30;72.30;;;;;;7393455;19;20377;-62
2022/05/01 13:03:24;;;;;;;6.72;4.45;;;16.20;71.50;;;;;;7398240;19;20026;-62
2022/05/01 13:06:09;;;;;;;7.07;5.00;;;16.90;72.70;;;;;;7397634;19;20044;-62
2022/05/01 13:08:39;;;;;;;6.60;4.80;;;18.00;72.00;;;;;;7387203;19;20011;-62
2022/05/01 13:11:18;;;;;;;8.15;4.85;;;18.60;70.20;;;;;;7402620;19;20014;-62
2022/05/01 13:13:58;;;;;;;7.50;5.22;;;19.40;69.70;;;;;;7401923;19;20031;-62
2022/05/01 13:16:44;;;;;;;6.95;4.50;;;20.00;64.80;;;;;;7393251;19;20107;-62
2022/05/01 13:19:14;;;;;;;;;;;19.80;65.80;;;;;;7400668;19;20014;-63
2022/05/01 13:21:45;;;;;;;6.10;4.70;;;19.70;66.60;;;;;;7402371;19;19947;-62
2022/05/01 13:24:18;;;;;;;7.40;5.32;;;19.30;67.50;;;;;;7393012;19;20022;-62
2022/05/01 13:26:47;;;;;;;8.90;5.18;;;19.20;68.80;;;;;;7397177;19;20011;-62
2022/05/01 13:29:17;;;;;;;7.40;5.20;;;19.10;70.20;;;;;;7398348;19;20038;-63
2022/05/01 13:31:50;;;;;;;7.20;5.43;;;18.00;70.50;;;;;;7397160;19;20025;-63
2022/05/01 13:34:19;;;;;;;7.20;4.85;;;18.00;72.00;;;;;;7401414;19;20473;-63
2022/05/01 13:36:48;;;;;;;6.30;4.65;;;17.70;73.30;;;;;;7400329;19;20011;-63
2022/05/01 13:39:17;;;;;;;7.20;5.30;;;17.40;73.80;;;;;;7398655;19;20010;-63
2022/05/01 13:47:13;;;;;;;6.97;5.05;;;17.30;75.00;;;;;;7399195;19;20659;-63
2022/05/01 13:49:42;;;;;;;7.65;4.90;;;17.50;75.40;;;;;;7399348;19;20603;-63
2022/05/01 13:52:12;;;;;;;7.13;4.80;;;17.50;75.90;;;;;;7401234;19;20030;-61
2022/05/01 13:54:43;;;;;;;8.02;4.72;;;17.40;75.50;;;;;;7395332;19;20006;-62
2022/05/01 13:57:14;;;;;;;7.55;5.13;;;17.60;75.50;;;;;;7387264;19;20018;-62
2022/05/01 13:59:44;;;;;;;5.97;4.70;;;18.00;74.70;;;;;;7398534;19;20015;-61
2022/05/01 14:02:16;;;;;;;7.38;4.90;;;18.00;73.20;;;;;;7400711;19;20010;-61
2022/05/01 14:04:47;;;;;;;6.30;4.78;;;18.50;73.40;;;;;;7399278;19;20019;-62
2022/05/01 14:07:17;;;;;;;7.07;4.78;;;18.50;73.70;;;;;;7397424;19;20035;-62
2022/05/01 14:09:46;;;;;;;10.07;5.38;;;18.70;72.90;;;;;;7394934;19;20014;-62
2022/05/01 14:12:15;;;;;;;7.72;5.00;;;18.50;72.60;;;;;;7396725;19;20457;-63
2022/05/01 14:14:45;;;;;;;6.20;4.50;;;18.30;72.20;;;;;;7396861;19;19998;-62
2022/05/01 14:17:17;;;;;;;10.07;5.35;;;18.40;72.30;;;;;;7390205;19;20074;-62
2022/05/01 14:19:48;;;;;;;6.65;4.63;;;18.20;71.70;;;;;;7400748;19;20022;-62
2022/05/01 14:22:21;;;;;;;7.70;5.43;;;18.80;71.80;;;;;;7398150;19;20019;-62
2022/05/01 14:24:52;;;;;;;7.53;5.30;;;19.10;70.40;;;;;;7396402;19;20198;-62
2022/05/01 14:27:22;;;;;;;7.55;5.13;;;19.10;70.30;;;;;;7396152;19;20042;-61
2022/05/01 14:29:52;;;;;;;6.75;4.68;;;19.10;70.10;;;;;;7396552;19;20082;-62
2022/05/01 14:32:27;;;;;;;7.00;5.20;;;18.90;70.30;;;;;;7399607;19;20085;-62
2022/05/01 14:35:02;;;;;;;7.20;5.60;;;19.10;69.80;;;;;;7394700;19;20018;-62
2022/05/01 14:37:39;;;;;;;10.07;5.40;;;19.40;69.30;;;;;;7396575;19;20476;-62
2022/05/01 14:40:11;;;;;;;7.30;4.90;;;19.40;69.40;;;;;;7395015;19;20018;-63
2022/05/01 14:42:43;;;;;;;6.72;4.88;;;19.40;69.00;;;;;;7399618;19;20007;-62
2022/05/01 14:45:16;;;;;;;7.20;4.95;;;19.40;67.80;;;;;;7396717;19;20018;-62
2022/05/01 14:47:57;;;;;;;7.00;4.40;;;20.10;66.50;;;;;;7397141;19;20018;-62
2022/05/01 14:50:34;;;;;;;6.07;4.30;;;20.40;66.20;;;;;;7398145;19;20017;-62
2022/05/01 14:53:03;;;;;;;5.63;4.10;;;20.30;66.50;;;;;;7395981;19;20021;-62
2022/05/01 14:55:34;;;;;;;6.25;4.55;;;20.40;66.50;;;;;;7394980;19;20014;-62